Time;durP1;ratioP1;P1;durP2;ratioP2;P2;SDS_P1;SDS_P2;PMS_P1;PMS_P2;Temp;Humidity;BMP_temperature;BMP_pressure;BME280_temperature;BME280_humidity;BME280_pressure;Samples;Min_cycle;Max_cycle;Signal;HPM_P1;HPM_P2
2023/07/03 00:00:15;;;;;;;3.33;3.03;;;23.50;69.60;;;;;;5077974;28;20044;-50
2023/07/03 00:02:41;;;;;;;4.10;3.70;;;23.50;69.60;;;;;;5077845;28;20021;-53
2023/07/03 00:05:09;;;;;;;3.65;3.22;;;23.40;69.70;;;;;;5077836;28;20033;-50
2023/07/03 00:07:36;;;;;;;3.42;3.10;;;23.40;69.80;;;;;;5078014;28;20025;-52
2023/07/03 00:10:04;;;;;;;3.50;3.20;;;23.40;70.00;;;;;;5077939;28;20072;-49
2023/07/03 00:12:30;;;;;;;3.60;3.22;;;23.40;70.20;;;;;;5077871;28;20028;-50
2023/07/03 00:14:56;;;;;;;3.50;3.17;;;23.40;70.30;;;;;;5077996;28;20024;-51
2023/07/03 00:17:22;;;;;;;3.38;3.05;;;23.40;70.40;;;;;;5077753;28;20040;-51
2023/07/03 00:19:48;;;;;;;3.80;3.40;;;23.30;70.50;;;;;;5077983;28;20065;-50
2023/07/03 00:22:13;;;;;;;3.42;3.13;;;23.30;70.60;;;;;;5077836;28;20017;-51
2023/07/03 00:24:39;;;;;;;4.60;3.13;;;23.30;70.60;;;;;;5077722;28;20036;-51
2023/07/03 00:27:05;;;;;;;4.68;3.40;;;23.30;70.80;;;;;;5077646;28;20036;-51
2023/07/03 00:29:32;;;;;;;3.58;3.08;;;23.30;71.00;;;;;;5077687;28;20009;-50
2023/07/03 00:31:58;;;;;;;3.45;3.15;;;23.30;70.90;;;;;;5077615;28;20028;-50
2023/07/03 00:34:24;;;;;;;4.18;3.00;;;23.30;71.00;;;;;;5077406;28;21019;-52
2023/07/03 00:36:50;;;;;;;3.40;3.10;;;23.30;71.10;;;;;;5077692;28;20065;-49
2023/07/03 00:39:16;;;;;;;3.40;3.00;;;23.30;71.10;;;;;;5077575;28;20020;-50
2023/07/03 00:41:42;;;;;;;3.03;2.78;;;23.30;71.10;;;;;;5077383;28;20081;-51
2023/07/03 00:44:14;;;;;;;3.53;3.17;;;23.30;71.20;;;;;;5077460;28;20088;-53
2023/07/03 00:46:41;;;;;;;3.35;3.00;;;23.30;71.30;;;;;;5077488;28;20013;-51
2023/07/03 00:49:09;;;;;;;3.05;2.75;;;23.40;71.40;;;;;;5077415;28;20028;-51
2023/07/03 00:51:37;;;;;;;2.97;2.75;;;23.30;71.40;;;;;;5077381;28;20206;-49
2023/07/03 00:54:02;;;;;;;2.88;2.67;;;23.30;71.40;;;;;;5077365;28;20010;-49
2023/07/03 00:56:28;;;;;;;3.75;3.33;;;23.30;71.40;;;;;;5077420;28;20013;-50
2023/07/03 00:58:54;;;;;;;4.00;2.80;;;23.30;71.20;;;;;;5077319;28;20013;-54
2023/07/03 01:01:26;;;;;;;3.53;3.00;;;23.40;71.50;;;;;;5077330;28;20017;-49
2023/07/03 01:04:20;;;;;;;2.90;2.70;;;23.40;71.50;;;;;;5077259;28;20070;-51
2023/07/03 01:07:01;;;;;;;3.20;2.90;;;23.40;71.40;;;;;;5077222;28;20033;-50
2023/07/03 01:09:35;;;;;;;4.72;3.20;;;23.40;71.50;;;;;;5077350;28;20017;-51
2023/07/03 01:12:01;;;;;;;3.42;3.13;;;23.40;71.70;;;;;;5077287;28;20005;-49
2023/07/03 01:14:28;;;;;;;3.28;2.90;;;23.40;71.70;;;;;;5077247;28;20021;-52
2023/07/03 01:16:56;;;;;;;3.80;3.40;;;23.50;71.90;;;;;;5077193;28;20021;-51
2023/07/03 01:19:29;;;;;;;3.28;2.95;;;23.50;72.00;;;;;;5077017;28;20013;-51
2023/07/03 01:22:08;;;;;;;4.95;3.20;;;23.50;71.90;;;;;;5077160;28;20021;-50
2023/07/03 01:24:45;;;;;;;4.03;3.25;;;23.50;71.90;;;;;;5076980;28;20112;-52
2023/07/03 01:27:14;;;;;;;4.57;2.95;;;23.50;71.80;;;;;;5077038;28;20009;-51
2023/07/03 01:29:42;;;;;;;3.17;2.80;;;23.50;71.90;;;;;;5077011;28;20013;-51
2023/07/03 01:32:09;;;;;;;2.97;2.78;;;23.50;71.80;;;;;;5076992;28;20033;-52
2023/07/03 01:34:38;;;;;;;3.13;2.83;;;23.50;71.80;;;;;;5076881;28;20025;-50
2023/07/03 01:37:04;;;;;;;3.50;3.20;;;23.50;71.70;;;;;;5076946;28;20044;-49
2023/07/03 01:39:30;;;;;;;3.42;3.13;;;23.50;71.90;;;;;;5076968;28;20017;-51
2023/07/03 01:41:58;;;;;;;4.13;3.15;;;23.50;71.90;;;;;;5077009;28;20013;-50
2023/07/03 01:44:23;;;;;;;3.58;3.08;;;23.50;71.80;;;;;;5076926;28;20047;-50
2023/07/03 01:46:49;;;;;;;4.63;3.42;;;23.50;71.80;;;;;;5077599;28;20009;-53
2023/07/03 01:49:16;;;;;;;3.38;3.08;;;23.50;71.80;;;;;;5080607;28;20064;-53
2023/07/03 01:52:10;;;;;;;3.83;2.80;;;23.50;71.70;;;;;;5080506;28;20072;-51
2023/07/03 01:54:49;;;;;;;3.10;2.80;;;23.50;71.60;;;;;;5080631;28;20010;-50
2023/07/03 01:57:32;;;;;;;2.97;2.70;;;23.50;71.50;;;;;;5080478;28;20025;-50
2023/07/03 02:00:00;;;;;;;3.38;3.00;;;23.50;71.60;;;;;;5080472;28;20071;-50
2023/07/03 02:02:28;;;;;;;3.40;3.10;;;23.40;71.40;;;;;;5080225;28;20009;-54
2023/07/03 02:04:58;;;;;;;3.45;2.88;;;23.40;71.50;;;;;;5080076;28;20112;-50
2023/07/03 02:07:27;;;;;;;3.53;2.97;;;23.40;71.50;;;;;;5080265;28;20013;-53
2023/07/03 02:09:53;;;;;;;3.60;3.13;;;23.30;71.60;;;;;;5080206;28;20026;-50
2023/07/03 02:12:18;;;;;;;3.28;2.97;;;23.30;71.70;;;;;;5080220;28;20040;-51
2023/07/03 02:14:44;;;;;;;2.80;2.60;;;23.30;71.80;;;;;;5080077;28;20096;-49
2023/07/03 02:17:09;;;;;;;3.45;3.15;;;23.30;71.90;;;;;;5080174;28;20017;-52
2023/07/03 02:19:35;;;;;;;3.00;2.70;;;23.30;72.10;;;;;;5080009;28;20021;-50
2023/07/03 02:22:01;;;;;;;3.40;2.80;;;23.20;72.10;;;;;;5079985;28;20017;-51
2023/07/03 02:24:27;;;;;;;4.45;3.42;;;23.20;72.20;;;;;;5079894;28;20051;-49
2023/07/03 02:26:53;;;;;;;3.65;3.22;;;23.30;72.40;;;;;;5079316;28;20044;-51
2023/07/03 02:29:19;;;;;;;4.43;3.95;;;23.30;72.60;;;;;;5079939;28;20072;-53
2023/07/03 02:31:45;;;;;;;3.42;2.83;;;23.30;72.50;;;;;;5079795;28;20028;-50
2023/07/03 02:34:10;;;;;;;3.22;2.92;;;23.30;72.70;;;;;;5079886;28;20009;-52
2023/07/03 02:36:37;;;;;;;3.20;2.90;;;23.30;72.70;;;;;;5079742;28;20039;-51
2023/07/03 02:39:05;;;;;;;3.13;2.78;;;23.30;72.90;;;;;;5079716;28;20029;-52
2023/07/03 02:41:31;;;;;;;3.75;3.45;;;23.30;72.90;;;;;;5079619;28;20028;-54
2023/07/03 02:43:57;;;;;;;3.50;3.20;;;23.30;73.00;;;;;;5079662;28;20082;-50
2023/07/03 02:46:23;;;;;;;3.30;3.00;;;23.30;73.10;;;;;;5079666;28;20013;-53
2023/07/03 02:48:49;;;;;;;4.00;3.47;;;23.30;73.20;;;;;;5079393;28;20072;-54
2023/07/03 02:51:15;;;;;;;3.30;3.00;;;23.30;73.30;;;;;;5079386;28;20033;-51
2023/07/03 02:53:41;;;;;;;3.65;3.35;;;23.30;73.50;;;;;;5079457;28;20025;-51
2023/07/03 02:56:08;;;;;;;3.45;3.08;;;23.30;73.50;;;;;;5079345;28;20014;-50
2023/07/03 02:58:34;;;;;;;3.75;3.33;;;23.30;73.80;;;;;;5078073;28;20048;-50
2023/07/03 03:01:01;;;;;;;3.60;3.22;;;23.30;73.90;;;;;;5079206;28;20017;-52
2023/07/03 03:03:27;;;;;;;3.47;3.17;;;23.30;74.00;;;;;;5078549;28;20349;-51
2023/07/03 03:05:54;;;;;;;3.53;3.10;;;23.30;74.00;;;;;;5079054;28;20045;-49
2023/07/03 03:08:21;;;;;;;3.70;3.25;;;23.30;74.30;;;;;;5079275;28;20050;-51
2023/07/03 03:10:47;;;;;;;3.58;3.22;;;23.30;74.30;;;;;;5079206;28;20028;-50
2023/07/03 03:13:13;;;;;;;3.90;3.25;;;23.30;74.40;;;;;;5079147;28;20020;-53
2023/07/03 03:15:40;;;;;;;3.97;3.58;;;23.30;74.40;;;;;;5079001;28;20037;-52
2023/07/03 03:18:06;;;;;;;4.30;3.60;;;23.30;74.30;;;;;;5078845;28;20021;-50
2023/07/03 03:20:31;;;;;;;4.10;3.70;;;23.30;74.30;;;;;;5078906;28;20129;-52
2023/07/03 03:22:57;;;;;;;4.22;3.40;;;23.30;75.00;;;;;;5078797;28;20031;-50
2023/07/03 03:25:23;;;;;;;3.50;3.17;;;23.30;74.50;;;;;;5078827;28;20016;-52
2023/07/03 03:27:49;;;;;;;3.55;3.25;;;23.20;74.40;;;;;;5078751;28;20021;-53
2023/07/03 03:30:14;;;;;;;3.78;3.38;;;23.30;74.40;;;;;;5078704;28;20025;-53
2023/07/03 03:32:40;;;;;;;4.28;3.60;;;23.30;74.50;;;;;;5078508;28;20027;-51
2023/07/03 03:35:06;;;;;;;4.22;3.65;;;23.30;74.50;;;;;;5078508;28;20009;-51
2023/07/03 03:37:32;;;;;;;4.32;3.90;;;23.30;74.50;;;;;;5078616;28;20030;-50
2023/07/03 03:39:58;;;;;;;4.88;4.15;;;23.30;74.20;;;;;;5078426;28;20017;-50
2023/07/03 03:42:23;;;;;;;4.50;4.05;;;23.30;74.20;;;;;;5078395;28;20036;-51
2023/07/03 03:44:49;;;;;;;4.90;4.40;;;23.40;74.00;;;;;;5078376;28;20358;-53
2023/07/03 03:47:14;;;;;;;4.55;4.00;;;23.40;73.90;;;;;;5078293;28;20077;-50
2023/07/03 03:49:40;;;;;;;5.10;4.22;;;23.40;73.90;;;;;;5078250;28;20028;-52
2023/07/03 03:52:06;;;;;;;5.03;4.45;;;23.50;73.80;;;;;;5078210;28;20021;-52
2023/07/03 03:54:32;;;;;;;4.03;3.65;;;23.50;73.90;;;;;;5078202;28;20037;-50
2023/07/03 03:56:58;;;;;;;4.90;4.32;;;23.50;73.80;;;;;;5078164;28;20021;-51
2023/07/03 03:59:23;;;;;;;4.93;4.43;;;23.60;73.80;;;;;;5078162;28;20013;-51
2023/07/03 04:01:50;;;;;;;5.53;4.55;;;23.70;73.70;;;;;;5078026;28;20017;-54
2023/07/03 04:04:16;;;;;;;6.00;5.32;;;23.60;73.40;;;;;;5077980;28;20052;-51
2023/07/03 04:06:43;;;;;;;7.05;5.25;;;23.70;73.40;;;;;;5077871;28;20112;-51
2023/07/03 04:09:09;;;;;;;5.90;4.85;;;23.70;73.20;;;;;;5077872;28;20020;-53
2023/07/03 04:11:35;;;;;;;7.32;5.25;;;23.80;73.20;;;;;;5077690;28;20080;-51
2023/07/03 04:14:02;;;;;;;4.63;4.13;;;24.00;73.80;;;;;;5077813;28;20068;-53
2023/07/03 04:16:30;;;;;;;8.10;5.28;;;24.40;74.40;;;;;;5077812;28;20021;-50
2023/07/03 04:18:56;;;;;;;5.30;4.65;;;25.10;73.10;;;;;;5077811;28;20017;-52
2023/07/03 04:21:22;;;;;;;5.13;4.63;;;25.60;71.60;;;;;;5077791;28;20068;-51
2023/07/03 04:23:48;;;;;;;5.35;4.85;;;26.10;72.10;;;;;;5077712;28;20028;-53
2023/07/03 04:26:14;;;;;;;5.80;4.15;;;27.00;71.60;;;;;;5077687;28;20009;-52
2023/07/03 04:28:41;;;;;;;4.32;3.92;;;28.20;69.80;;;;;;5077695;28;20013;-53
2023/07/03 04:31:06;;;;;;;4.93;4.43;;;29.30;67.90;;;;;;5077556;28;20017;-51
2023/07/03 04:33:32;;;;;;;3.95;3.58;;;30.40;65.40;;;;;;5077636;28;20040;-52
2023/07/03 04:35:58;;;;;;;4.45;3.83;;;31.00;63.40;;;;;;5077552;28;20020;-52
2023/07/03 04:38:23;;;;;;;4.07;3.65;;;31.30;62.00;;;;;;5077569;28;20041;-53
2023/07/03 04:40:51;;;;;;;3.65;3.35;;;31.40;60.80;;;;;;5077537;28;20017;-51
2023/07/03 04:43:17;;;;;;;5.60;3.70;;;31.50;60.40;;;;;;5077395;28;20017;-52
2023/07/03 04:45:45;;;;;;;4.60;3.28;;;31.90;60.10;;;;;;5077245;28;20014;-54
2023/07/03 04:48:12;;;;;;;3.08;2.78;;;32.50;59.50;;;;;;5077546;28;20069;-52
2023/07/03 04:50:37;;;;;;;2.70;2.50;;;33.00;58.60;;;;;;5077386;28;20044;-51
2023/07/03 04:53:06;;;;;;;4.55;2.53;;;33.10;57.80;;;;;;5077173;28;20041;-53
2023/07/03 04:55:32;;;;;;;3.67;2.85;;;32.80;57.50;;;;;;5077354;28;20057;-50
2023/07/03 04:57:59;;;;;;;3.13;2.65;;;32.30;57.50;;;;;;5077415;28;20016;-53
2023/07/03 05:00:27;;;;;;;3.20;2.63;;;31.70;57.80;;;;;;5077255;28;20033;-54
2023/07/03 05:02:58;;;;;;;3.20;2.90;;;31.10;58.30;;;;;;5077247;28;20029;-52
2023/07/03 05:05:24;;;;;;;3.25;2.83;;;30.50;58.90;;;;;;5077206;28;20044;-51
2023/07/03 05:07:50;;;;;;;3.30;3.00;;;29.90;59.40;;;;;;5077256;28;20017;-52
2023/07/03 05:10:17;;;;;;;3.17;2.88;;;29.50;59.80;;;;;;5077066;28;20017;-52
2023/07/03 05:12:44;;;;;;;2.92;2.65;;;29.00;60.20;;;;;;5077288;28;20374;-54
2023/07/03 05:15:12;;;;;;;3.65;3.25;;;28.60;60.80;;;;;;5077299;28;20021;-50
2023/07/03 05:17:38;;;;;;;3.67;2.92;;;28.30;61.30;;;;;;5077291;28;20005;-52
2023/07/03 05:20:12;;;;;;;4.25;3.25;;;28.10;61.80;;;;;;5077042;28;20073;-49
2023/07/03 05:22:39;;;;;;;3.65;3.35;;;27.90;62.10;;;;;;5079179;28;20025;-50
2023/07/03 05:25:07;;;;;;;3.83;3.40;;;27.80;62.30;;;;;;5081041;28;20032;-50
2023/07/03 05:27:34;;;;;;;3.55;3.15;;;27.60;62.70;;;;;;5080916;28;20028;-54
2023/07/03 05:29:59;;;;;;;5.78;3.90;;;27.50;63.00;;;;;;5080918;28;20021;-51
2023/07/03 05:32:25;;;;;;;3.90;3.42;;;27.40;63.20;;;;;;5080945;28;20043;-49
2023/07/03 05:34:51;;;;;;;3.88;3.28;;;27.30;63.40;;;;;;5080772;28;20021;-50
2023/07/03 05:37:17;;;;;;;4.63;3.67;;;27.20;63.50;;;;;;5080720;28;20028;-53
2023/07/03 05:39:46;;;;;;;4.60;3.72;;;27.10;63.70;;;;;;5077350;28;20017;-51
2023/07/03 05:42:12;;;;;;;4.28;3.60;;;27.00;64.00;;;;;;5077607;28;20006;-51
2023/07/03 05:44:37;;;;;;;3.88;3.35;;;26.90;64.10;;;;;;5077776;28;20071;-54
2023/07/03 05:47:03;;;;;;;4.15;3.50;;;26.80;64.40;;;;;;5088840;28;20009;-51
2023/07/03 05:49:29;;;;;;;4.15;3.63;;;26.70;64.40;;;;;;5089222;28;20032;-52
2023/07/03 05:51:54;;;;;;;4.13;3.72;;;26.60;64.60;;;;;;5082238;28;20029;-52
2023/07/03 05:54:21;;;;;;;4.07;3.30;;;26.50;64.70;;;;;;5078440;28;20013;-54
2023/07/03 05:57:04;;;;;;;3.65;3.35;;;26.50;65.10;;;;;;5077992;28;20013;-53
2023/07/03 05:59:30;;;;;;;4.28;3.50;;;26.40;65.10;;;;;;5079915;28;20024;-53
2023/07/03 06:01:56;;;;;;;4.28;3.85;;;26.30;65.30;;;;;;5083106;28;20053;-50
2023/07/03 06:04:23;;;;;;;3.38;3.05;;;26.30;65.60;;;;;;5080987;28;20051;-51
2023/07/03 06:06:53;;;;;;;4.35;3.72;;;26.20;65.60;;;;;;5078315;28;20063;-53
2023/07/03 06:09:19;;;;;;;5.40;4.38;;;26.20;65.90;;;;;;5091435;28;20075;-52
2023/07/03 06:11:45;;;;;;;4.88;4.00;;;26.20;66.10;;;;;;5080409;28;20040;-51
2023/07/03 06:14:17;;;;;;;4.80;3.92;;;26.20;66.40;;;;;;5079962;28;20040;-50
2023/07/03 06:16:43;;;;;;;4.95;4.30;;;26.10;66.30;;;;;;5076991;28;20009;-49
2023/07/03 06:19:10;;;;;;;4.40;3.80;;;26.10;66.40;;;;;;5074426;28;20021;-52
2023/07/03 06:21:36;;;;;;;4.30;3.65;;;26.10;66.50;;;;;;5081678;28;20032;-51
2023/07/03 06:24:02;;;;;;;3.88;3.47;;;26.10;66.50;;;;;;5080467;28;20041;-52
2023/07/03 06:26:31;;;;;;;4.70;3.95;;;26.10;66.60;;;;;;5083283;28;20040;-54
2023/07/03 06:28:57;;;;;;;4.25;3.72;;;26.10;66.70;;;;;;5074020;28;20025;-51
2023/07/03 06:31:23;;;;;;;5.90;3.60;;;26.10;66.70;;;;;;5082281;28;20013;-54
2023/07/03 06:33:48;;;;;;;4.35;3.72;;;26.10;66.90;;;;;;5078204;28;20080;-52
2023/07/03 06:36:20;;;;;;;5.03;3.88;;;26.10;66.90;;;;;;5079876;28;20021;-53
2023/07/03 06:38:53;;;;;;;5.38;4.28;;;26.20;67.20;;;;;;5073493;28;20013;-51
2023/07/03 06:41:19;;;;;;;4.47;4.07;;;26.20;67.30;;;;;;5079909;28;20014;-53
2023/07/03 06:43:45;;;;;;;4.53;4.07;;;26.20;67.20;;;;;;5071802;28;20045;-54
2023/07/03 06:46:11;;;;;;;3.97;3.58;;;26.30;67.20;;;;;;5086370;28;20024;-54
2023/07/03 06:48:37;;;;;;;5.28;3.75;;;26.30;67.20;;;;;;5082382;28;20073;-52
2023/07/03 06:51:05;;;;;;;4.75;4.25;;;26.40;67.30;;;;;;5073020;28;20036;-52
2023/07/03 06:53:31;;;;;;;5.05;4.50;;;26.40;67.30;;;;;;5076607;28;20040;-50
2023/07/03 06:55:57;;;;;;;5.40;4.43;;;26.50;67.10;;;;;;5075272;28;20079;-52
2023/07/03 06:58:24;;;;;;;4.43;4.03;;;26.60;67.10;;;;;;5073695;28;20048;-50
2023/07/03 07:00:49;;;;;;;4.35;3.95;;;26.70;67.00;;;;;;5074425;28;20024;-51
2023/07/03 07:03:15;;;;;;;5.32;4.38;;;26.80;66.90;;;;;;5066681;28;20037;-54
2023/07/03 07:05:41;;;;;;;4.72;4.30;;;26.90;66.70;;;;;;5073397;28;20059;-52
2023/07/03 07:08:06;;;;;;;10.40;4.22;;;27.00;66.60;;;;;;5070360;28;20021;-49
2023/07/03 07:10:32;;;;;;;7.22;4.55;;;27.00;66.20;;;;;;5073387;28;20037;-53
2023/07/03 07:12:58;;;;;;;5.15;4.18;;;27.10;66.40;;;;;;5079300;28;20021;-54
2023/07/03 07:15:23;;;;;;;5.45;4.13;;;27.20;66.30;;;;;;5088718;28;20047;-51
2023/07/03 07:17:49;;;;;;;6.03;4.10;;;27.20;66.40;;;;;;5072926;28;20028;-50
2023/07/03 07:20:15;;;;;;;4.80;3.97;;;27.30;66.30;;;;;;5073134;28;20037;-51
2023/07/03 07:22:40;;;;;;;5.25;3.63;;;27.30;66.10;;;;;;5080072;28;20021;-53
2023/07/03 07:25:06;;;;;;;4.70;4.22;;;27.40;66.20;;;;;;5065354;28;20017;-52
2023/07/03 07:27:33;;;;;;;5.72;4.75;;;27.40;66.30;;;;;;5075450;28;20028;-51
2023/07/03 07:29:59;;;;;;;4.35;3.95;;;27.50;66.10;;;;;;5069380;28;20029;-52
2023/07/03 07:32:25;;;;;;;4.63;3.80;;;27.50;65.80;;;;;;5067661;28;20017;-50
2023/07/03 07:34:50;;;;;;;4.28;3.72;;;27.50;65.80;;;;;;5071452;28;20036;-51
2023/07/03 07:37:16;;;;;;;3.95;3.53;;;27.60;65.70;;;;;;5068416;28;20017;-52
2023/07/03 07:39:42;;;;;;;5.05;4.28;;;27.60;65.60;;;;;;5072877;28;20030;-52
2023/07/03 07:42:08;;;;;;;4.63;3.92;;;27.60;65.40;;;;;;5076573;28;20017;-54
2023/07/03 07:44:34;;;;;;;4.53;3.95;;;27.70;65.60;;;;;;5069080;28;20139;-50
2023/07/03 07:46:59;;;;;;;4.55;4.15;;;27.70;65.40;;;;;;5065593;28;20066;-55
2023/07/03 07:49:25;;;;;;;4.13;3.72;;;27.70;65.50;;;;;;5067741;28;20017;-52
2023/07/03 07:51:51;;;;;;;3.92;3.53;;;27.80;65.60;;;;;;5067380;28;20025;-51
2023/07/03 07:54:16;;;;;;;4.50;4.10;;;27.80;65.50;;;;;;5061456;28;20052;-53
2023/07/03 07:56:42;;;;;;;4.28;3.88;;;27.90;65.60;;;;;;5063096;28;20040;-51
2023/07/03 07:59:08;;;;;;;4.10;3.70;;;27.90;65.60;;;;;;5062963;28;20041;-53
2023/07/03 08:01:33;;;;;;;4.85;4.35;;;27.90;65.40;;;;;;5063620;28;20053;-52
2023/07/03 08:03:59;;;;;;;5.38;4.45;;;27.90;65.50;;;;;;5063351;28;20053;-53
2023/07/03 08:06:24;;;;;;;5.75;4.60;;;28.00;65.20;;;;;;5060629;28;20092;-54
2023/07/03 08:08:51;;;;;;;4.30;3.90;;;28.00;65.10;;;;;;5071244;28;20469;-56
2023/07/03 08:11:16;;;;;;;4.47;4.07;;;28.00;65.00;;;;;;5066549;28;20245;-51
2023/07/03 08:13:42;;;;;;;4.20;3.70;;;28.00;65.10;;;;;;5062008;28;20033;-51
2023/07/03 08:16:10;;;;;;;4.88;4.38;;;28.00;65.20;;;;;;5061487;28;20024;-54
2023/07/03 08:18:35;;;;;;;4.05;3.67;;;28.00;64.90;;;;;;5070153;28;20044;-50
2023/07/03 08:21:01;;;;;;;4.60;4.18;;;28.00;64.80;;;;;;5070723;28;20009;-52
2023/07/03 08:23:27;;;;;;;4.47;4.07;;;28.00;64.90;;;;;;5066562;28;20093;-51
2023/07/03 08:25:54;;;;;;;4.93;4.47;;;28.00;65.30;;;;;;5058048;28;20028;-53
2023/07/03 08:28:21;;;;;;;5.00;4.50;;;27.90;65.40;;;;;;5071871;28;20033;-53
2023/07/03 08:30:47;;;;;;;4.88;4.38;;;27.90;65.60;;;;;;5072047;28;20124;-52
2023/07/03 08:33:13;;;;;;;5.30;4.80;;;27.90;65.70;;;;;;5077979;28;20024;-53
2023/07/03 08:35:40;;;;;;;6.35;4.82;;;27.80;65.80;;;;;;5072046;28;20032;-52
2023/07/03 08:38:06;;;;;;;5.93;5.32;;;27.80;65.70;;;;;;5068547;28;20037;-53
2023/07/03 08:40:31;;;;;;;5.45;4.95;;;27.80;65.80;;;;;;5072165;28;20063;-51
2023/07/03 08:42:59;;;;;;;6.18;5.47;;;27.80;65.80;;;;;;5070371;28;20047;-52
2023/07/03 08:45:46;;;;;;;5.85;5.25;;;27.80;65.90;;;;;;5081990;28;20040;-50
2023/07/03 08:48:19;;;;;;;5.28;4.70;;;27.80;66.00;;;;;;5058525;28;20167;-51
2023/07/03 08:50:49;;;;;;;4.95;4.45;;;27.80;66.20;;;;;;5073268;28;20049;-50
2023/07/03 08:53:18;;;;;;;5.70;4.88;;;27.70;66.10;;;;;;5074061;28;20021;-51
2023/07/03 08:55:51;;;;;;;5.10;4.60;;;27.70;66.30;;;;;;5075644;28;20025;-48
2023/07/03 08:58:16;;;;;;;5.07;4.30;;;27.70;66.50;;;;;;5089600;28;20013;-53
2023/07/03 09:01:27;;;;;;;4.63;4.22;;;27.70;66.80;;;;;;5081465;28;20051;-50
2023/07/03 09:04:11;;;;;;;4.65;4.22;;;27.70;66.50;;;;;;5061166;28;20056;-51
2023/07/03 09:06:50;;;;;;;4.22;3.83;;;27.70;66.40;;;;;;5075346;28;20041;-49
2023/07/03 09:09:22;;;;;;;4.50;4.10;;;27.80;66.30;;;;;;5077430;28;20056;-50
2023/07/03 09:12:00;;;;;;;4.85;4.10;;;27.80;66.50;;;;;;5083268;28;20036;-52
2023/07/03 09:14:31;;;;;;;4.50;4.10;;;27.80;66.40;;;;;;5069972;28;20018;-51
2023/07/03 09:16:57;;;;;;;4.38;3.97;;;27.80;66.50;;;;;;5075817;28;20029;-50
2023/07/03 09:19:26;;;;;;;4.38;3.95;;;27.80;66.30;;;;;;5076769;28;20040;-52
2023/07/03 09:21:56;;;;;;;5.50;3.95;;;27.80;66.50;;;;;;5076147;28;20029;-50
2023/07/03 09:24:28;;;;;;;4.43;4.00;;;27.80;66.30;;;;;;5076179;28;20362;-50
2023/07/03 09:27:20;;;;;;;4.07;3.53;;;27.80;66.40;;;;;;5075401;28;20025;-49
2023/07/03 09:29:46;;;;;;;4.35;3.50;;;27.80;66.40;;;;;;5071726;28;20048;-53
2023/07/03 09:32:25;;;;;;;4.00;3.60;;;27.70;66.50;;;;;;5064992;28;20024;-52
2023/07/03 09:35:07;;;;;;;4.20;3.80;;;27.70;66.60;;;;;;5074005;28;20033;-51
2023/07/03 09:37:38;;;;;;;3.95;3.58;;;27.60;66.60;;;;;;5070647;28;20013;-51
2023/07/03 09:40:09;;;;;;;3.72;3.42;;;27.60;66.70;;;;;;5109577;28;20036;-52
2023/07/03 09:42:35;;;;;;;4.75;3.92;;;27.50;66.60;;;;;;5068131;28;20097;-51
2023/07/03 09:45:11;;;;;;;5.38;4.15;;;27.50;66.60;;;;;;5069036;28;20045;-51
2023/07/03 09:47:37;;;;;;;3.80;3.40;;;27.40;66.80;;;;;;5070862;28;20016;-50
2023/07/03 09:50:08;;;;;;;4.13;3.67;;;27.30;67.00;;;;;;5078173;28;20040;-52
2023/07/03 09:52:42;;;;;;;4.00;3.60;;;27.30;67.20;;;;;;5075976;28;20076;-53
2023/07/03 09:55:07;;;;;;;4.35;3.95;;;27.30;67.40;;;;;;5068273;28;20028;-53
2023/07/03 09:57:34;;;;;;;5.07;4.40;;;27.20;67.10;;;;;;5068662;28;20165;-51
2023/07/03 10:00:14;;;;;;;4.05;3.65;;;27.20;67.20;;;;;;5076354;28;20024;-53
2023/07/03 10:02:41;;;;;;;4.10;3.47;;;27.10;67.30;;;;;;5071193;28;20013;-52
2023/07/03 10:05:07;;;;;;;4.30;3.90;;;27.10;67.50;;;;;;5072286;28;20040;-51
2023/07/03 10:07:40;;;;;;;4.20;3.80;;;27.00;67.60;;;;;;5072706;28;20039;-50
2023/07/03 10:10:11;;;;;;;4.32;3.92;;;27.00;67.60;;;;;;5071977;28;20024;-50
2023/07/03 10:12:44;;;;;;;4.25;3.83;;;27.00;67.70;;;;;;5074584;28;20044;-49
2023/07/03 10:15:28;;;;;;;4.20;3.70;;;26.90;67.80;;;;;;5073362;28;20025;-49
2023/07/03 10:18:19;;;;;;;4.80;4.00;;;26.90;68.00;;;;;;5071032;28;20033;-54
2023/07/03 10:20:48;;;;;;;4.10;3.70;;;26.90;68.10;;;;;;5073493;28;20037;-51
2023/07/03 10:23:29;;;;;;;4.35;3.95;;;26.80;68.30;;;;;;5071798;28;20059;-52
2023/07/03 10:26:04;;;;;;;4.60;3.97;;;26.80;68.40;;;;;;5070792;28;20029;-51
2023/07/03 10:28:43;;;;;;;5.15;4.00;;;26.80;68.70;;;;;;5066801;28;20040;-50
2023/07/03 10:31:15;;;;;;;4.78;3.90;;;26.70;68.80;;;;;;5067600;28;20096;-51
2023/07/03 10:33:48;;;;;;;4.95;4.22;;;26.70;68.90;;;;;;5067273;28;20047;-50
2023/07/03 10:36:20;;;;;;;4.50;4.10;;;26.70;69.10;;;;;;5069372;28;20064;-52
2023/07/03 10:39:05;;;;;;;4.47;4.07;;;26.60;69.30;;;;;;5073639;28;20017;-52
2023/07/03 10:41:37;;;;;;;4.10;3.67;;;26.60;69.50;;;;;;5070779;28;20005;-51
2023/07/03 10:44:11;;;;;;;4.03;3.63;;;26.60;70.00;;;;;;5068914;28;20090;-50
2023/07/03 10:46:47;;;;;;;4.22;3.80;;;26.50;69.90;;;;;;5066062;28;20017;-49
2023/07/03 10:49:22;;;;;;;4.90;3.70;;;26.50;69.90;;;;;;5066663;28;20012;-51
2023/07/03 10:52:02;;;;;;;4.47;3.83;;;26.50;69.90;;;;;;5068387;28;20013;-53
2023/07/03 10:54:37;;;;;;;3.50;3.20;;;26.50;69.90;;;;;;5071953;28;20088;-53
2023/07/03 10:57:07;;;;;;;4.03;3.63;;;26.50;69.70;;;;;;5070474;28;20024;-51
2023/07/03 10:59:38;;;;;;;3.50;3.20;;;26.40;69.70;;;;;;5064950;28;20048;-50
2023/07/03 11:02:19;;;;;;;4.13;3.53;;;26.40;69.90;;;;;;5068151;28;20017;-50
2023/07/03 11:05:14;;;;;;;;;;;26.40;69.80;;;;;;5070592;28;20049;-55
2023/07/03 11:07:57;;;;;;;4.07;3.50;;;26.40;70.00;;;;;;5065629;28;20072;-54
2023/07/03 11:10:32;;;;;;;3.63;3.33;;;26.40;69.90;;;;;;5076751;28;20017;-49
2023/07/03 11:13:14;;;;;;;4.10;3.47;;;26.40;70.00;;;;;;5069806;28;20025;-52
2023/07/03 11:16:09;;;;;;;4.40;3.80;;;26.40;70.00;;;;;;5068159;28;20080;-49
2023/07/03 11:18:41;;;;;;;3.88;3.47;;;26.40;69.90;;;;;;5067672;28;20056;-54
2023/07/03 11:21:33;;;;;;;4.55;3.88;;;26.40;69.90;;;;;;5063341;28;20039;-51
2023/07/03 11:24:16;;;;;;;4.13;3.55;;;26.40;70.00;;;;;;5068030;28;20055;-51
2023/07/03 11:26:56;;;;;;;3.70;3.40;;;26.40;70.30;;;;;;5058436;28;20323;-52
2023/07/03 11:29:23;;;;;;;4.23;3.83;;;26.40;70.40;;;;;;5073612;28;20048;-53
2023/07/03 11:31:50;;;;;;;4.30;3.70;;;26.40;70.40;;;;;;5067911;28;20040;-54
2023/07/03 11:34:18;;;;;;;3.80;3.40;;;26.40;70.40;;;;;;5076541;28;20032;-54
2023/07/03 11:36:47;;;;;;;4.20;3.80;;;26.40;70.50;;;;;;5063101;28;20021;-54
2023/07/03 11:39:23;;;;;;;5.22;4.18;;;26.40;70.40;;;;;;5067964;28;20025;-52
2023/07/03 11:41:50;;;;;;;4.00;3.60;;;26.40;70.50;;;;;;5067965;28;20064;-52
2023/07/03 11:44:37;;;;;;;4.32;3.92;;;26.40;70.50;;;;;;5068239;28;20043;-54
2023/07/03 11:47:13;;;;;;;4.22;3.83;;;26.50;70.70;;;;;;5068122;28;20789;-53
2023/07/03 11:49:48;;;;;;;4.38;3.97;;;26.50;70.90;;;;;;5072080;28;20013;-53
2023/07/03 11:52:29;;;;;;;4.85;4.38;;;26.50;70.80;;;;;;5068133;28;20029;-51
2023/07/03 11:55:18;;;;;;;5.00;4.38;;;26.50;70.90;;;;;;5074362;28;20033;-50
2023/07/03 11:57:46;;;;;;;4.85;4.25;;;26.50;71.20;;;;;;5066279;28;20017;-53
2023/07/03 12:00:24;;;;;;;4.78;4.20;;;26.50;71.40;;;;;;5070272;28;20017;-51
2023/07/03 12:03:06;;;;;;;5.35;4.78;;;26.50;71.30;;;;;;5063321;28;20071;-53
2023/07/03 12:05:47;;;;;;;5.32;4.82;;;26.60;71.30;;;;;;5065653;28;20039;-50
2023/07/03 12:08:18;;;;;;;5.03;4.50;;;26.50;71.30;;;;;;5044870;23;20134;-89
2023/07/03 12:10:52;;;;;;;5.05;4.55;;;26.50;71.50;;;;;;4986455;28;20038;-90
2023/07/03 12:13:46;;;;;;;5.18;4.40;;;26.50;71.60;;;;;;4981707;28;20687;-89
2023/07/03 12:16:18;;;;;;;5.45;4.85;;;26.50;71.70;;;;;;4980848;28;20044;-86
2023/07/03 12:18:44;;;;;;;5.28;4.78;;;26.50;71.70;;;;;;4993728;28;20058;-86
2023/07/03 12:21:10;;;;;;;4.90;4.40;;;26.50;71.50;;;;;;4978687;28;20145;-87
2023/07/03 12:23:44;;;;;;;5.97;5.28;;;26.50;71.40;;;;;;4990257;28;20651;-85
2023/07/03 12:26:18;;;;;;;5.75;5.15;;;26.50;71.30;;;;;;4985482;28;20018;-85
2023/07/03 12:28:45;;;;;;;6.70;5.15;;;26.50;71.40;;;;;;4984538;28;20121;-85
2023/07/03 12:31:15;;;;;;;6.05;5.45;;;26.50;71.40;;;;;;4983677;28;20084;-86
2023/07/03 12:33:57;;;;;;;6.65;5.90;;;26.50;71.50;;;;;;4982188;28;20042;-85
2023/07/03 12:36:30;;;;;;;6.50;5.88;;;26.60;71.90;;;;;;5000895;28;20038;-83
2023/07/03 12:38:57;;;;;;;7.53;6.68;;;26.60;72.10;;;;;;4989568;28;20579;-85
2023/07/03 12:41:32;;;;;;;8.23;7.18;;;26.60;72.30;;;;;;4983460;28;20031;-86
2023/07/03 12:44:01;;;;;;;8.07;7.00;;;26.60;72.10;;;;;;4983821;28;20026;-88
2023/07/03 12:46:34;;;;;;;8.27;7.47;;;26.60;72.10;;;;;;4994433;28;20026;-88
2023/07/03 12:49:05;;;;;;;7.90;7.13;;;26.60;72.40;;;;;;4979485;28;20038;-85
2023/07/03 12:51:51;;;;;;;8.73;7.82;;;26.50;72.60;;;;;;4989602;28;20506;-86
2023/07/03 12:54:18;;;;;;;8.23;7.43;;;26.50;72.70;;;;;;4991634;28;20446;-86
2023/07/03 12:56:44;;;;;;;7.25;6.55;;;26.50;72.70;;;;;;4984018;28;20505;-85
2023/07/03 12:59:14;;;;;;;7.70;6.70;;;26.50;72.40;;;;;;4987796;28;20106;-84